Hartford, Connecticut
Traffic Map
Current Weather Conditions
Hartford, Connecticut
Overcast
Overcast
12°
Feels Like: 12°
Wind Chill: 12° Ceiling: 2200
Heat Index: 12° Visibility: 10mi
Dew Point: Wind: 21mph
Humidity: 66% Direction: 360° (N)
Pressure: 29.76in Gusts: 0mph
Raw Report DataKHFD 241553Z 36018KT 10SM BKN022 OVC038 12/06 A2976 RMK AO2 SLP079 T01220061 $
Traffic Incident Summary
Active as of:
Severity:
Category:
InformationThere was an issue retrieving the traffic information for this location. Please try a different location or try again shortly.
Advertisements
Track Severe Weather on mobile